Sierra Nevada Aquatic Research Lab (SNARL) Reserve, Santa Monica Mtns, California Weather observations

Data are for 10 minute period ending at time listed.
 Day   Time   Solar   Ave.   Ave.  Ave.  Vector  Max.   Baro.   Total    
  of    of     Rad.   Air    Rel.  Wind   Wind   Wind  Press.  Precip.   
Year   Day            Temp.  Hum.  Speed  Dir.   Gust                    
2015   (PST)  Kw/m2    F      %     mph   deg.    mph    mb.     in.     
-------------------------------------------------------------------------
  26    3:40   0.00   22.5    69    2.3   257     5.5   789.2    0.00 
  26    3:50   0.00   22.4    68    2.9   250     4.7   789.1    0.00 
  26    4:00   0.00   22.8    69    3.3   252     4.9   789.0    0.00 
  26    4:10   0.00   23.2    68    1.1   273     2.9   788.9    0.00 
  26    4:20   0.00   22.7    69    1.6   248     3.1   788.8    0.00 
  26    4:30   0.00   23.5    69    0.6     5     2.0   788.8    0.00 
  26    4:40   0.00   22.4    69    1.7   229     4.8   788.7    0.00 
  26    4:50   0.00   24.7    67    1.8   309     4.0   788.6    0.00 
  26    5:00   0.00   23.7    66    1.0   340     2.9   788.7    0.00 
  26    5:10   0.00   22.0    71    1.8   249     4.4   788.6    0.00 
  26    5:20   0.00   23.7    69    1.6   296     4.0   788.6    0.00 
  26    5:30   0.00   22.5    69    1.5   277     3.1   788.5    0.00 
  26    5:40   0.00   21.1    72    0.6   115     1.8   788.5    0.00 
  26    5:50   0.00   21.4    72    1.8   257     2.8   788.5    0.00 
  26    6:00   0.00   20.8    73    0.7   208     2.1   788.5    0.00 
  26    6:10   0.00   22.0    72    0.0     0     0.0   788.4    0.00 
  26    6:20   0.00   21.0    71    1.3   241     3.0   788.4    0.00 
  26    6:30   0.00   22.0    72    2.1   230     4.2   788.4    0.00 
  26    6:40   0.00   23.2    68    1.6   348     3.1   788.4    0.00 
  26    6:50   0.00   21.2    72    1.2    92     2.6   788.5    0.00 
  26    7:00   0.00   21.9    73    1.2   186     2.4   788.6    0.00 
  26    7:10   0.00   22.9    73    1.0    27     2.1   788.7    0.00 
  26    7:20   0.00   22.3    73    1.9   214     2.6   788.7    0.00 
  26    7:30   0.01   22.5    74    0.3   204     1.0   788.7    0.00 
  26    7:40   0.02   23.0    74    2.7   297     5.8   788.7    0.00 
  26    7:50   0.03   24.9    71    2.1   314     5.8   788.7    0.00 
  26    8:00   0.06   25.4    71    1.8   305     3.6   788.7    0.00 
  26    8:10   0.09   26.8    69    1.3   224     2.2   788.6    0.00 
  26    8:20   0.13   28.6    66    0.7    68     2.0   788.7    0.00 
  26    8:30   0.15   31.0    62    1.2   116     2.6   788.7    0.00 
  26    8:40   0.13   32.6    59    1.2    16     1.8   788.8    0.00 
  26    8:50   0.13   33.4    57    1.0    44     1.9   788.8    0.00 
  26    9:00   0.12   34.5    55    1.0   268     2.7   788.7    0.00 
  26    9:10   0.14   35.1    54    1.1   228     2.7   788.7    0.00 
  26    9:20   0.17   36.2    52    0.9   274     2.1   788.5    0.00 
  26    9:30   0.21   38.2    48    1.5   297     3.9   788.5    0.00 
  26    9:40   0.21   39.0    47    2.3   344     4.1   788.5    0.00 
  26    9:50   0.28   39.4    47    2.3   339     3.5   788.5    0.00 
  26   10:00   0.36   41.9    43    0.9   293     2.6   788.5    0.00 
  26   10:10   0.20   43.5    40    0.7   314     2.7   788.4    0.00 
  26   10:20   0.19   43.2    40    1.7   232     3.1   788.3    0.00 
  26   10:30   0.18   43.2    40    1.8   273     3.4   788.1    0.00 
  26   10:40   0.25   44.1    39    1.2   295     3.1   788.0    0.00 
  26   10:50   0.32   45.9    37    1.4     3     3.6   787.9    0.00 
  26   11:00   0.49   47.4    35    2.2   340     6.3   787.8    0.00 
  26   11:10   0.53   49.1    31    3.0   323     5.9   787.6    0.00 
  26   11:20   0.72   50.9    30    3.6   352     6.8   787.4    0.00 
  26   11:30   0.63   51.5    28    4.1    11     6.8   787.0    0.00 
  26   11:40   0.69   52.7    27    3.3   355     6.1   786.8    0.00 
  26   11:50   0.65   53.8    25    3.3     0     6.1   786.6    0.00 
  26   12:00   0.64   54.8    24    3.4    82    12.4   786.3    0.00 
  26   12:10   0.60   55.5    24    7.3   118    13.2   786.1    0.00 
  26   12:20   0.47   56.4    22    4.0   102    10.9   785.9    0.00 
  26   12:30   0.62   56.4    23    4.6   127     9.0   785.7    0.00 
  26   12:40   0.57   57.3    22    5.1    87    10.8   785.4    0.00 
  26   12:50   0.56   57.3    21    4.5    81    11.4   785.4    0.00 
  26   13:00   0.35   57.1    21    6.1    97    10.6   785.2    0.00 
  26   13:10   0.61   56.3    22    6.8   106    11.8   785.0    0.00 
  26   13:20   0.60   57.5    21    8.9    87    14.8   785.0    0.00 
  26   13:30   0.58   57.7    21   11.3    89    16.9   784.9    0.00 
  26   13:40   0.46   56.8    21   10.6    86    16.4   784.7    0.00 
  26   13:50   0.49   57.1    21   10.1    91    16.9   784.6    0.00 
  26   14:00   0.59   57.4    20   12.4    91    20.5   784.4    0.00 
  26   14:10   0.58   57.8    20   12.3    96    18.7   784.3    0.00 
  26   14:20   0.52   57.8    20   12.3    94    21.7   784.2    0.00 
  26   14:30   0.39   57.2    20   14.1    96    24.6   784.1    0.00 
  26   14:40   0.19   55.2    22   15.2    92    22.4   784.1    0.00 
  26   14:50   0.28   54.1    24   16.3    92    23.6   784.0    0.00 
  26   15:00   0.42   55.5    23   15.7    99    24.4   783.8    0.00 
  26   15:10   0.36   55.7    23   13.4    92    23.7   783.7    0.00 
  26   15:20   0.33   55.9    22   12.5    99    20.5   783.7    0.00 
  26   15:30   0.31   56.2    22   11.0   102    19.4   783.7    0.00 
  26   15:40   0.26   55.9    22    9.8   109    18.9   783.8    0.00 
  26   15:50   0.18   54.4    24   13.7   106    20.0   783.8    0.00 
  26   16:00   0.09   52.7    25   12.5   109    17.0   783.7    0.00 
  26   16:10   0.09   51.9    26   14.0   108    19.4   783.5    0.00 
  26   16:20   0.06   51.8    26   10.9   110    16.8   783.4    0.00 
  26   16:30   0.03   51.5    27   13.9   106    22.4   783.4    0.00 
  26   16:40   0.02   50.7    28   15.8   106    24.3   783.5    0.00 
  26   16:50   0.01   50.3    28   15.4   116    20.7   783.5    0.00 
  26   17:00   0.00   49.6    30   17.0   111    25.8   783.6    0.00 
  26   17:10   0.00   49.0    31   19.0   108    26.6   783.6    0.00 
  26   17:20   0.00   48.5    31   16.5   113    26.4   784.0    0.00 
  26   17:30   0.00   48.0    32   14.4   114    20.1   784.2    0.00 
  26   17:40   0.00   47.4    33   14.4   100    20.4   784.1    0.00 
  26   17:50   0.00   46.0    37   16.6   103    21.8   784.1    0.00 
  26   18:00   0.00   45.5    37   15.2   111    23.9   784.2    0.00 
  26   18:10   0.00   45.6    37   16.5   102    22.9   784.2    0.00 
  26   18:20   0.00   45.2    38   17.2   104    24.7   784.2    0.00 
  26   18:30   0.00   44.4    40   17.9   108    23.6   784.2    0.00 
  26   18:40   0.00   44.1    41   15.8   113    23.8   784.4    0.00 
  26   18:50   0.00   44.7    38   14.3   101    21.6   784.5    0.00 
  26   19:00   0.00   44.3    40   12.5   101    16.1   784.5    0.00 
  26   19:10   0.00   43.5    42   11.1   105    15.9   784.7    0.00 
  26   19:20   0.00   42.2    46   10.8   123    18.3   784.8    0.00 
  26   19:30   0.00   41.7    47   12.5   118    19.6   784.8    0.00 
  26   19:40   0.00   41.7    48   13.8   106    18.9   784.6    0.00 
  26   19:50   0.00   41.3    50   12.0   103    20.0   784.7    0.00 
  26   20:00   0.00   41.3    51   11.9   100    16.4   784.9    0.00 
  26   20:10   0.00   41.1    52   10.9    94    15.5   785.0    0.00 
  26   20:20   0.00   40.6    54    9.4    91    14.5   784.9    0.00 
  26   20:30   0.00   40.2    57    8.3    79    14.5   785.0    0.00 
  26   20:40   0.00   40.2    58    8.5    73    13.1   785.1    0.00 
  26   20:50   0.00   40.0    59    5.8    87    10.3   785.1    0.00 
  26   21:00   0.00   39.9    59    4.1   102     9.6   785.1    0.00 
  26   21:10   0.00   39.8    60    3.5   108     6.5   785.0    0.00 
  26   21:20   0.00   39.8    60    4.2   306     7.6   784.9    0.00 
  26   21:30   0.00   39.7    59    2.9   269     6.1   784.8    0.00 
  26   21:40   0.00   38.1    60    4.2   232     5.9   784.8    0.00 
  26   21:50   0.00   36.2    62    5.6   244     8.0   784.6    0.00 
  26   22:00   0.00   35.2    63    5.3   222     6.6   784.6    0.00 
  26   22:10   0.00   34.3    64    3.8   221     5.8   784.6    0.00 
  26   22:20   0.00   33.9    66    2.7   237     4.1   784.7    0.00 
  26   22:30   0.00   33.3    66    1.7   293     2.9   784.8    0.00 
  26   22:40   0.00   31.7    67    1.5   195     2.1   784.9    0.00 
  26   22:50   0.00   31.0    69    2.9   212     5.3   785.0    0.00 
  26   23:00   0.00   32.0    69    3.8   230     5.6   784.9    0.00 
  26   23:10   0.00   33.3    67    4.4   297     7.5   785.0    0.00 
  26   23:20   0.00   34.1    65    2.7   230     4.6   785.0    0.00 
  26   23:30   0.00   34.2    65    1.8    61     4.0   785.1    0.00 
  26   23:40   0.00   34.5    64    1.4    82     2.4   785.1    0.00 
  26   23:50   0.00   34.3    65    1.1   304     3.2   785.0    0.00 
  27    0:00   0.00   34.2    65    1.6   316     4.0   785.0    0.00 
  27    0:10   0.00   34.5    65    3.3   233     4.8   785.0    0.00 
  27    0:20   0.00   35.0    65    2.4   291     4.3   785.1    0.00 
  27    0:30   0.00   35.4    70    3.4   101     5.3   785.1    0.00 
  27    0:40   0.00   36.3    77    4.2    81     8.3   785.2    0.00 
  27    0:50   0.00   36.1    82    2.1     9     4.4   785.1    0.00 
  27    1:00   0.00   35.9    85    3.8   310     7.2   785.1    0.00 
  27    1:10   0.00   34.6    86    6.1   259    10.8   785.2    0.00 
  27    1:20   0.00   33.1    89    8.1   258    11.7   785.1    0.00 
  27    1:30   0.00   32.7    91    6.2   260     8.6   784.9    0.00 
  27    1:40   0.00   32.5    90    5.9   261     9.1   785.0    0.00 
  27    1:50   0.00   32.3    91    5.9   257     7.7   784.9    0.00 
  27    2:00   0.00   32.4    91    5.4   255     7.7   784.9    0.00 
  27    2:10   0.00   32.7    90    5.3   252     9.6   784.9    0.00 
  27    2:20   0.00   32.7    89    4.7   260     6.7   785.0    0.00 
  27    2:30   0.00   32.7    89    5.3   242     7.5   784.9    0.00 
  27    2:40   0.00   32.4    89    3.5   234     4.8   784.8    0.00 
  27    2:50   0.00   32.2    90    2.1   221     3.7   784.9    0.00 
  27    3:00   0.00   32.3    89    0.3   213     1.2   784.9    0.00 
  27    3:10   0.00   32.3    89    0.2   167     0.9   785.0    0.00 
  27    3:20   0.00   32.1    90    0.4   247     2.0   785.0    0.00 
  27    3:30   0.00   32.0    91    0.5   197     1.2   784.9    0.00 

Return to SNARL Reserve graphs page.


Western Regional Climate Center,wrcc@dri.edu